createdAt,value
2023-02-17T00:02:28.910Z,80.57
2023-02-17T00:05:31.244Z,80.22
2023-02-17T00:08:33.367Z,68.65
2023-02-17T00:11:35.597Z,81.55
2023-02-17T00:14:39.510Z,79.53
2023-02-17T00:17:41.633Z,85.20
2023-02-17T00:20:43.888Z,80.82
2023-02-17T00:23:47.515Z,66.28
2023-02-17T00:26:50.060Z,79.75
2023-02-17T00:29:52.287Z,81.30
2023-02-17T00:32:54.406Z,74.10
2023-02-17T00:35:56.641Z,84.13
2023-02-17T00:38:59.096Z,84.40
2023-02-17T00:42:01.292Z,74.72
2023-02-17T00:45:05.654Z,71.65
2023-02-17T00:48:07.861Z,80.70
2023-02-17T00:51:10.866Z,72.35
2023-02-17T00:54:13.586Z,83.57
2023-02-17T00:57:15.824Z,85.80
2023-02-17T01:00:18.276Z,79.97
2023-02-17T01:03:20.376Z,86.15
2023-02-17T01:06:27.765Z,85.40
2023-02-17T01:09:30.047Z,85.00
2023-02-17T01:12:32.217Z,75.47
2023-02-17T01:15:42.808Z,81.55
2023-02-17T01:18:47.140Z,80.13
2023-02-17T01:21:49.343Z,75.07
2023-02-17T01:24:51.741Z,68.05
2023-02-17T01:27:54.082Z,77.45
2023-02-17T01:30:56.233Z,85.85
2023-02-17T01:34:01.392Z,85.00
2023-02-17T01:37:04.858Z,75.75
2023-02-17T01:40:14.079Z,76.00
2023-02-17T01:43:18.442Z,85.78
2023-02-17T01:46:20.759Z,85.22
2023-02-17T01:49:29.060Z,82.55
2023-02-17T01:52:31.194Z,80.13
2023-02-17T01:55:34.976Z,70.13
2023-02-17T01:58:44.319Z,78.50
2023-02-17T02:01:49.726Z,72.57
2023-02-17T02:04:54.044Z,72.90
2023-02-17T02:07:56.762Z,70.88
2023-02-17T02:10:58.970Z,75.53
2023-02-17T02:14:04.672Z,70.93
2023-02-17T02:17:07.288Z,60.65
2023-02-17T02:20:21.504Z,64.18
2023-02-17T02:23:29.392Z,71.13
2023-02-17T02:27:12.928Z,69.63
2023-02-17T02:30:42.916Z,67.38
2023-02-17T02:33:57.234Z,64.70
2023-02-17T02:37:27.006Z,58.88
2023-02-17T02:40:34.400Z,52.30
2023-02-17T02:43:37.835Z,62.58
2023-02-17T02:46:40.497Z,61.78
2023-02-17T02:49:42.766Z,61.40
2023-02-17T02:53:03.459Z,61.03
2023-02-17T02:56:34.590Z,52.20
2023-02-17T02:59:52.194Z,56.70
2023-02-17T03:02:58.301Z,59.88
2023-02-17T03:06:14.453Z,57.90
2023-02-17T03:09:22.413Z,56.88
2023-02-17T03:12:25.619Z,56.90
2023-02-17T03:15:35.277Z,52.90
2023-02-17T03:18:37.472Z,49.03
2023-02-17T03:21:58.165Z,51.83
2023-02-17T03:25:01.376Z,49.00
2023-02-17T03:28:04.050Z,53.50
2023-02-17T03:31:06.313Z,51.28
2023-02-17T03:34:08.926Z,52.22
2023-02-17T03:37:11.749Z,47.33
2023-02-17T03:40:13.981Z,48.90
2023-02-17T03:43:17.965Z,45.10
2023-02-17T03:46:20.364Z,51.28
2023-02-17T03:49:22.578Z,41.63
2023-02-17T03:52:24.695Z,42.33
2023-02-17T03:55:29.912Z,46.92
2023-02-17T03:58:32.114Z,50.13
2023-02-17T04:01:34.450Z,48.92
2023-02-17T04:04:36.717Z,47.20
2023-02-17T04:07:39.938Z,47.00
2023-02-17T04:10:42.038Z,46.95
2023-02-17T04:13:44.176Z,47.72
2023-02-17T04:16:46.431Z,46.00
2023-02-17T04:19:48.611Z,45.25
2023-02-17T04:22:50.824Z,44.40
2023-02-17T04:25:52.957Z,44.33
2023-02-17T04:28:55.157Z,44.95
2023-02-17T04:31:57.628Z,41.70
2023-02-17T04:34:59.980Z,38.15
2023-02-17T04:38:02.308Z,44.33
2023-02-17T04:41:06.448Z,43.60
2023-02-17T04:44:08.559Z,43.20
2023-02-17T04:47:10.768Z,38.78
2023-02-17T04:50:13.223Z,40.40
2023-02-17T04:53:15.658Z,39.67
2023-02-17T04:56:17.994Z,43.50
2023-02-17T04:59:20.338Z,40.55
2023-02-17T05:02:22.596Z,36.88
2023-02-17T05:05:24.820Z,36.92
2023-02-17T05:08:27.007Z,41.58
2023-02-17T05:11:29.260Z,43.47
2023-02-17T05:14:31.466Z,40.85
2023-02-17T05:17:33.836Z,43.58
2023-02-17T05:20:36.210Z,41.17
2023-02-17T05:23:41.407Z,42.92
2023-02-17T05:26:43.855Z,42.80
2023-02-17T05:29:46.514Z,43.47
2023-02-17T05:32:48.743Z,42.00
2023-02-17T05:35:50.904Z,38.05
2023-02-17T05:38:53.199Z,39.40
2023-02-17T05:41:56.722Z,37.38
2023-02-17T05:44:59.113Z,40.90
2023-02-17T05:48:01.315Z,42.17
2023-02-17T05:51:05.159Z,42.55
2023-02-17T05:54:07.365Z,39.72
2023-02-17T05:57:09.565Z,36.25
2023-02-17T06:00:12.524Z,39.92
2023-02-17T06:03:15.507Z,41.30
2023-02-17T06:06:17.961Z,33.38
2023-02-17T06:09:20.158Z,38.80
2023-02-17T06:12:22.262Z,41.95
2023-02-17T06:15:25.038Z,43.03
2023-02-17T06:18:27.189Z,36.25
2023-02-17T06:21:29.426Z,35.40
2023-02-17T06:24:31.971Z,38.35
2023-02-17T06:27:34.212Z,31.60
2023-02-17T06:30:36.426Z,40.30
2023-02-17T06:33:38.585Z,40.65
2023-02-17T06:36:40.827Z,41.05
2023-02-17T06:39:42.998Z,37.17
2023-02-17T06:42:45.234Z,34.63
2023-02-17T06:45:47.499Z,38.72
2023-02-17T06:48:49.667Z,38.60
2023-02-17T06:51:51.886Z,40.33
2023-02-17T06:54:54.057Z,34.63
2023-02-17T06:57:56.276Z,38.03
2023-02-17T07:00:58.944Z,36.60
2023-02-17T07:04:01.101Z,37.95
2023-02-17T07:07:03.394Z,34.30
2023-02-17T07:10:06.359Z,33.70
2023-02-17T07:13:08.715Z,32.10
2023-02-17T07:16:13.593Z,36.67
2023-02-17T07:19:15.797Z,37.28
2023-02-17T07:22:17.946Z,34.05
2023-02-17T07:25:20.358Z,35.50
2023-02-17T07:28:22.448Z,37.33
2023-02-17T07:31:24.757Z,38.65
2023-02-17T07:34:27.379Z,39.20
2023-02-17T07:37:29.606Z,35.60
2023-02-17T07:40:31.788Z,31.42
2023-02-17T07:43:33.991Z,36.97
2023-02-17T07:46:39.951Z,34.60
2023-02-17T07:49:42.169Z,34.05
2023-02-17T07:52:44.610Z,36.88
2023-02-17T07:55:46.879Z,35.58
2023-02-17T07:58:49.441Z,36.75
2023-02-17T08:01:51.637Z,36.60
2023-02-17T08:04:53.819Z,38.15
2023-02-17T08:08:14.373Z,31.65
2023-02-17T08:11:37.642Z,38.17
2023-02-17T08:14:39.882Z,38.65
2023-02-17T08:17:42.209Z,35.33
2023-02-17T08:20:44.784Z,38.88
2023-02-17T08:23:47.019Z,38.10
2023-02-17T08:26:49.895Z,39.05
2023-02-17T08:29:52.587Z,38.58
2023-02-17T08:32:55.855Z,37.63
2023-02-17T08:35:58.113Z,35.97
2023-02-17T08:39:00.753Z,38.85
2023-02-17T08:42:04.152Z,40.03
2023-02-17T08:45:06.875Z,40.42
2023-02-17T08:48:09.438Z,42.05
2023-02-17T08:51:16.693Z,38.55
2023-02-17T08:54:19.202Z,37.88
2023-02-17T08:57:22.551Z,36.42
2023-02-17T09:00:24.976Z,41.10
2023-02-17T09:03:27.293Z,43.97
2023-02-17T09:06:37.776Z,47.15
2023-02-17T09:09:41.210Z,46.63
2023-02-17T09:12:43.518Z,42.15
2023-02-17T09:15:45.901Z,44.80
2023-02-17T09:18:48.396Z,41.88
2023-02-17T09:21:50.754Z,41.38
2023-02-17T09:24:53.197Z,41.83
2023-02-17T09:27:55.404Z,44.67
2023-02-17T09:30:57.900Z,45.08
2023-02-17T09:34:00.414Z,44.65
2023-02-17T09:37:02.670Z,47.80
2023-02-17T09:40:05.401Z,49.97
2023-02-17T09:43:15.677Z,47.13
2023-02-17T09:49:27.857Z,48.65
2023-02-17T09:52:57.380Z,47.47
2023-02-17T09:56:05.213Z,52.87
2023-02-17T09:59:29.411Z,44.05
2023-02-17T10:02:40.225Z,50.90
2023-02-17T10:05:49.462Z,52.58
2023-02-17T10:09:23.849Z,51.67
2023-02-17T10:12:30.527Z,52.53
2023-02-17T10:15:39.800Z,54.97
2023-02-17T10:19:02.656Z,51.30
2023-02-17T10:22:16.091Z,55.75
2023-02-17T10:25:39.807Z,52.58
2023-02-17T10:28:59.696Z,57.15
2023-02-17T10:32:23.436Z,56.38
2023-02-17T10:35:40.667Z,52.60
2023-02-17T10:38:42.905Z,53.03
2023-02-17T10:41:48.277Z,54.05
2023-02-17T10:44:52.821Z,55.75
2023-02-17T10:48:02.690Z,50.97
2023-02-17T10:51:05.570Z,47.00
2023-02-17T10:54:35.930Z,52.92
2023-02-17T11:00:42.839Z,43.47
2023-02-17T11:03:45.468Z,52.88
2023-02-17T11:06:52.989Z,55.35
2023-02-17T11:10:02.167Z,52.63
2023-02-17T11:13:27.600Z,52.20
2023-02-17T11:16:34.043Z,47.22
2023-02-17T11:19:36.367Z,54.00
2023-02-17T11:22:41.700Z,48.42
2023-02-17T11:25:55.195Z,51.20
2023-02-17T11:29:22.878Z,53.13
2023-02-17T11:32:32.856Z,52.38
2023-02-17T11:35:38.126Z,48.15
2023-02-17T11:38:40.218Z,48.38
2023-02-17T11:41:42.456Z,45.72
2023-02-17T11:44:45.016Z,49.58
2023-02-17T11:48:22.174Z,47.35
2023-02-17T11:52:05.436Z,48.33
2023-02-17T11:55:42.750Z,47.13
2023-02-17T11:58:56.801Z,44.63
2023-02-17T12:02:13.262Z,45.97
2023-02-17T12:05:18.187Z,45.53
2023-02-17T12:08:32.481Z,43.05
2023-02-17T12:11:49.244Z,43.92
2023-02-17T12:14:51.399Z,45.67
2023-02-17T12:18:08.637Z,41.30
2023-02-17T12:21:43.452Z,41.30
2023-02-17T12:24:51.518Z,38.80
2023-02-17T12:28:26.228Z,36.00
2023-02-17T12:31:48.785Z,35.90
2023-02-17T12:34:55.241Z,39.42
2023-02-17T12:38:03.706Z,39.75
2023-02-17T12:41:37.655Z,35.30
2023-02-17T12:45:03.909Z,35.65
2023-02-17T12:48:35.563Z,33.78
2023-02-17T12:52:01.041Z,34.20
2023-02-17T12:55:13.492Z,34.08
2023-02-17T12:58:31.611Z,32.35
2023-02-17T13:01:33.984Z,33.00
2023-02-17T13:04:37.095Z,30.63
2023-02-17T13:08:06.185Z,31.20
2023-02-17T13:11:13.929Z,31.23
2023-02-17T13:14:28.761Z,27.67
2023-02-17T13:17:52.452Z,27.70
2023-02-17T13:20:56.838Z,28.08
2023-02-17T13:24:26.418Z,27.33
2023-02-17T13:27:28.480Z,27.65
2023-02-17T13:30:43.194Z,25.58
2023-02-17T13:33:51.761Z,24.38
2023-02-17T13:36:54.507Z,23.85
2023-02-17T13:39:56.738Z,24.85
2023-02-17T13:43:16.556Z,25.90
2023-02-17T13:46:24.613Z,22.33
2023-02-17T13:49:28.508Z,23.02
2023-02-17T13:52:32.661Z,22.27
2023-02-17T13:55:34.832Z,19.65
2023-02-17T13:58:40.192Z,17.80
2023-02-17T14:01:44.066Z,20.40
2023-02-17T14:04:46.408Z,20.17
2023-02-17T14:07:49.799Z,16.65
2023-02-17T14:10:52.739Z,18.83
2023-02-17T14:13:57.026Z,18.73
2023-02-17T14:17:05.486Z,16.33
2023-02-17T14:20:08.211Z,18.40
2023-02-17T14:23:15.997Z,17.15
2023-02-17T14:26:37.932Z,16.35
2023-02-17T14:29:45.802Z,16.85
2023-02-17T14:32:48.045Z,15.77
2023-02-17T14:35:56.548Z,18.42
2023-02-17T14:39:00.117Z,14.95
2023-02-17T14:42:02.314Z,13.98
2023-02-17T14:45:04.697Z,13.75
2023-02-17T14:48:07.045Z,16.33
2023-02-17T14:51:16.961Z,16.30
2023-02-17T14:54:19.753Z,13.75
2023-02-17T14:57:27.873Z,16.33
2023-02-17T15:00:30.012Z,14.60
2023-02-17T15:03:32.967Z,14.48
2023-02-17T15:06:54.042Z,14.32
2023-02-17T15:09:56.262Z,15.45
2023-02-17T15:12:58.562Z,15.18
2023-02-17T15:16:00.762Z,15.93
2023-02-17T15:19:03.093Z,15.35
2023-02-17T15:22:05.685Z,14.38
2023-02-17T15:25:13.700Z,14.68
2023-02-17T15:28:18.319Z,15.65
2023-02-17T15:31:21.619Z,16.05
2023-02-17T15:34:30.939Z,14.32
2023-02-17T15:37:33.070Z,13.95
2023-02-17T15:40:35.434Z,14.65
2023-02-17T15:43:37.554Z,14.13
2023-02-17T15:46:39.765Z,14.68
2023-02-17T15:57:07.818Z,15.27
2023-02-17T16:00:17.421Z,15.52
2023-02-17T16:03:19.665Z,13.50
2023-02-17T16:06:22.002Z,14.82
2023-02-17T16:09:24.185Z,15.70
2023-02-17T16:12:29.078Z,14.50
2023-02-17T16:15:32.892Z,13.10
2023-02-17T16:18:35.038Z,16.05
2023-02-17T16:21:37.223Z,15.70
2023-02-17T16:24:39.385Z,16.67
2023-02-17T16:27:43.267Z,15.82
2023-02-17T16:30:46.692Z,15.52
2023-02-17T16:33:49.176Z,15.35
2023-02-17T16:36:53.529Z,15.05
2023-02-17T16:39:55.721Z,15.75
2023-02-17T16:42:57.961Z,14.90
2023-02-17T16:46:05.629Z,16.85
2023-02-17T16:49:28.414Z,16.08
2023-02-17T16:52:30.664Z,16.45
2023-02-17T16:55:35.292Z,16.35
2023-02-17T16:58:37.555Z,15.38
2023-02-17T17:01:39.789Z,15.10
2023-02-17T17:04:42.060Z,15.43
2023-02-17T17:07:44.912Z,14.63
2023-02-17T17:10:47.171Z,15.25
2023-02-17T17:13:49.445Z,14.85
2023-02-17T17:16:56.245Z,15.07
2023-02-17T17:19:58.483Z,14.75
2023-02-17T17:23:08.683Z,14.43
2023-02-17T17:29:48.184Z,13.60
2023-02-17T17:32:50.365Z,13.20
2023-02-17T17:35:54.410Z,13.75
2023-02-17T17:38:58.098Z,13.05
2023-02-17T17:42:00.309Z,13.20
2023-02-17T17:45:02.560Z,13.25
2023-02-17T17:48:05.007Z,13.05
2023-02-17T17:51:07.316Z,11.57
2023-02-17T17:54:09.579Z,13.57
2023-02-17T17:57:11.814Z,13.88
2023-02-17T18:00:16.332Z,13.50
2023-02-17T18:03:18.746Z,13.65
2023-02-17T18:06:32.748Z,13.00
2023-02-17T18:09:38.152Z,13.52
2023-02-17T18:12:43.999Z,12.73
2023-02-17T18:15:46.679Z,14.10
2023-02-17T18:18:50.071Z,14.20
2023-02-17T18:21:52.719Z,13.80
2023-02-17T18:24:56.590Z,13.75
2023-02-17T18:27:59.310Z,14.13
2023-02-17T18:31:08.140Z,13.27
2023-02-17T18:34:10.498Z,13.85
2023-02-17T18:37:12.631Z,14.00
2023-02-17T18:40:17.277Z,14.98
2023-02-17T18:43:19.641Z,13.98
2023-02-17T18:46:22.021Z,13.38
2023-02-17T18:49:24.229Z,14.15
2023-02-17T18:52:26.575Z,14.38
2023-02-17T18:55:28.850Z,14.48
2023-02-17T18:58:31.094Z,14.60
2023-02-17T19:01:35.276Z,12.68
2023-02-17T19:04:37.563Z,15.52
2023-02-17T19:07:39.746Z,14.95
2023-02-17T19:10:41.947Z,13.73
2023-02-17T19:13:45.506Z,16.05
2023-02-17T19:16:47.761Z,15.65
2023-02-17T19:19:50.371Z,15.30
2023-02-17T19:22:52.457Z,17.25
2023-02-17T19:25:54.695Z,15.63
2023-02-17T19:28:56.866Z,16.00
2023-02-17T19:32:00.143Z,16.80
2023-02-17T19:35:02.408Z,16.35
2023-02-17T19:38:04.532Z,16.65
2023-02-17T19:41:08.720Z,18.17
2023-02-17T19:44:11.635Z,18.75
2023-02-17T19:47:13.951Z,20.23
2023-02-17T19:50:17.761Z,23.45
2023-02-17T19:53:20.019Z,23.55
2023-02-17T19:56:25.533Z,23.80
2023-02-17T19:59:27.782Z,26.75
2023-02-17T20:02:30.134Z,27.25
2023-02-17T20:05:41.138Z,28.05
2023-02-17T20:08:44.039Z,29.70
2023-02-17T20:11:47.619Z,30.67
2023-02-17T20:14:50.136Z,31.38
2023-02-17T20:17:52.322Z,32.00
2023-02-17T20:20:55.522Z,30.85
2023-02-17T20:23:58.135Z,31.88
2023-02-17T20:27:01.181Z,33.83
2023-02-17T20:30:04.149Z,39.42
2023-02-17T20:33:06.646Z,41.50
2023-02-17T20:36:11.093Z,34.53
2023-02-17T20:39:14.595Z,44.97
2023-02-17T20:42:17.051Z,45.97
2023-02-17T20:45:19.235Z,44.78
2023-02-17T20:48:22.085Z,42.42
2023-02-17T20:51:24.932Z,47.47
2023-02-17T20:54:27.673Z,45.53
2023-02-17T20:57:29.806Z,39.50
2023-02-17T21:00:32.142Z,46.60
2023-02-17T21:03:34.682Z,49.08
2023-02-17T21:06:43.946Z,50.83
2023-02-17T21:09:46.751Z,46.53
2023-02-17T21:12:49.355Z,48.75
2023-02-17T21:15:51.806Z,50.58
2023-02-17T21:18:54.268Z,47.53
2023-02-17T21:21:56.613Z,48.05
2023-02-17T21:24:58.935Z,51.47
2023-02-17T21:28:01.145Z,46.00
2023-02-17T21:31:04.329Z,49.33
2023-02-17T21:34:06.635Z,51.72
2023-02-17T21:37:09.004Z,49.75
2023-02-17T21:40:11.598Z,47.55
2023-02-17T21:43:32.774Z,51.78
2023-02-17T21:46:35.252Z,56.33
2023-02-17T21:49:37.631Z,58.58
2023-02-17T21:52:39.882Z,60.10
2023-02-17T21:55:42.134Z,62.20
2023-02-17T21:58:49.472Z,61.20
2023-02-17T22:01:52.860Z,62.53
2023-02-17T22:04:56.608Z,61.60
2023-02-17T22:07:59.338Z,63.05
2023-02-17T22:11:01.545Z,58.25
2023-02-17T22:14:07.801Z,64.35
2023-02-17T22:17:09.975Z,65.57
2023-02-17T22:20:12.727Z,64.03
2023-02-17T22:23:14.873Z,66.43
2023-02-17T22:26:21.002Z,70.43
2023-02-17T22:29:23.421Z,56.63
2023-02-17T22:32:25.675Z,59.95
2023-02-17T22:35:29.291Z,62.83
2023-02-17T22:38:31.761Z,67.45
2023-02-17T22:41:35.175Z,66.78
2023-02-17T22:44:37.598Z,56.47
2023-02-17T22:47:39.847Z,65.18
2023-02-17T22:50:42.090Z,69.72
2023-02-17T22:53:44.693Z,72.28
2023-02-17T22:56:46.873Z,69.28
2023-02-17T22:59:49.031Z,71.20
2023-02-17T23:02:51.374Z,70.18
2023-02-17T23:05:58.705Z,66.55
2023-02-17T23:09:02.317Z,67.82
2023-02-17T23:12:04.679Z,70.40
2023-02-17T23:15:07.812Z,62.30
2023-02-17T23:18:13.674Z,73.32
2023-02-17T23:21:16.885Z,73.38
2023-02-17T23:24:19.955Z,65.88
2023-02-17T23:27:22.278Z,68.82
2023-02-17T23:30:25.102Z,67.72
2023-02-17T23:33:27.450Z,70.85
2023-02-17T23:36:29.847Z,65.47
2023-02-17T23:39:32.123Z,70.68
2023-02-17T23:42:34.390Z,69.68
2023-02-17T23:45:38.650Z,69.68
2023-02-17T23:48:40.843Z,69.45
2023-02-17T23:51:44.353Z,66.32
2023-02-17T23:54:46.619Z,65.07
2023-02-17T23:57:48.895Z,71.78
